Deer Grove, Illinois
Current Conditions -  °F | °C
As of 6:55 AM on Saturday 20 Dec 2014 (Local Time) from KSQI Reporting Station
Overcast Overcast  
Wind Chill: 22°   Ceiling: 5000
Heat Index: 28°   Visibility: 5mi
Dew Point: 25°   Wind: 6mph
Humidity: 86%   Direction: 110°ESE
Pressure: 30.26"   Gusts: NA
Location:  41.61°N, 89.69°W
Report Text: KSQI 201255Z 11005KT 5SM OVC050 M02/M04 A3026 RMK AO1
Loading
Personal Weather Stations






























Interactive Weather Map New forecast layout! Learn more

10-Day Weather Forecast

Advertisements
Track Severe Weather on mobile